Time;durP1;ratioP1;P1;durP2;ratioP2;P2;SDS_P1;SDS_P2;PMS_P1;PMS_P2;Temp;Humidity;BMP_temperature;BMP_pressure;BME280_temperature;BME280_humidity;BME280_pressure;Samples;Min_cycle;Max_cycle;Signal;HPM_P1;HPM_P2
2022/06/28 00:00:14;;;;;;;2.17;1.60;;;;;;;;;;4977131;28;20244;-79
2022/06/28 00:02:40;;;;;;;3.60;1.80;;;;;;;;;;4959334;28;20184;-79
2022/06/28 00:05:07;;;;;;;3.10;1.60;;;;;;;;;;4951662;28;20629;-79
2022/06/28 00:07:33;;;;;;;2.17;1.60;;;;;;;;;;4975461;28;20664;-79
2022/06/28 00:10:00;;;;;;;1.90;1.70;;;;;;;;;;4973311;28;20210;-79
2022/06/28 00:12:26;;;;;;;2.07;1.70;;;;;;;;;;4955428;28;20239;-79
2022/06/28 00:17:37;;;;;;;5.23;1.70;;;;;;;;;;4984515;28;20177;-79
2022/06/28 00:20:04;;;;;;;2.73;2.00;;;;;;;;;;4979563;28;20238;-79
2022/06/28 00:22:30;;;;;;;3.60;1.70;;;;;;;;;;4982022;28;20183;-79
2022/06/28 00:24:57;;;;;;;1.80;1.67;;;;;;;;;;4976706;28;20648;-79
2022/06/28 00:27:23;;;;;;;3.23;1.67;;;;;;;;;;4958829;28;20560;-80
2022/06/28 00:29:49;;;;;;;2.43;1.80;;;;;;;;;;4939626;28;20243;-79
2022/06/28 00:32:15;;;;;;;4.67;1.80;;;;;;;;;;4973234;28;20684;-79
2022/06/28 00:34:41;;;;;;;5.67;2.10;;;;;;;;;;4963146;28;20763;-79
2022/06/28 00:37:07;;;;;;;2.60;1.90;;;;;;;;;;4989933;28;20183;-79
2022/06/28 00:39:34;;;;;;;4.03;2.00;;;;;;;;;;4975997;28;20193;-79
2022/06/28 00:42:00;;;;;;;3.80;2.20;;;;;;;;;;4959502;28;20208;-79
2022/06/28 00:44:27;;;;;;;5.10;2.30;;;;;;;;;;4976175;28;20185;-80
2022/06/28 00:46:54;;;;;;;2.13;1.90;;;;;;;;;;4954427;28;20657;-80
2022/06/28 00:49:20;;;;;;;3.97;2.20;;;;;;;;;;4940089;28;20645;-80
2022/06/28 00:51:46;;;;;;;3.07;1.90;;;;;;;;;;4969783;28;20211;-80
2022/06/28 00:54:13;;;;;;;3.30;1.90;;;;;;;;;;4979325;28;20200;-79
2022/06/28 00:56:39;;;;;;;2.43;1.93;;;;;;;;;;4975989;28;20173;-80
2022/06/28 00:59:05;;;;;;;2.20;2.00;;;;;;;;;;4982125;28;20647;-79
2022/06/28 01:01:32;;;;;;;2.90;1.83;;;;;;;;;;4977346;28;20299;-79
2022/06/28 01:03:59;;;;;;;2.63;2.00;;;;;;;;;;4945248;28;20207;-79
2022/06/28 01:06:26;;;;;;;3.93;2.20;;;;;;;;;;4947048;28;20180;-77
2022/06/28 01:08:52;;;;;;;5.30;1.90;;;;;;;;;;4975301;28;20259;-77
2022/06/28 01:11:23;;;;;;;2.83;1.90;;;;;;;;;;4978877;28;20208;-79
2022/06/28 01:13:54;;;;;;;2.13;1.70;;;;;;;;;;4976184;28;20275;-80
2022/06/28 01:16:23;;;;;;;2.70;1.60;;;;;;;;;;4975901;28;20164;-79
2022/06/28 01:18:52;;;;;;;1.90;1.50;;;;;;;;;;4964891;28;20189;-79
2022/06/28 01:21:36;;;;;;;2.27;1.50;;;;;;;;;;4975151;28;20291;-80
2022/06/28 01:24:03;;;;;;;4.03;1.70;;;;;;;;;;4980036;28;20192;-79
2022/06/28 01:26:46;;;;;;;2.40;1.80;;;;;;;;;;4968341;28;20680;-79
2022/06/28 01:29:14;;;;;;;4.80;1.60;;;;;;;;;;4975074;28;20204;-79
2022/06/28 01:32:00;;;;;;;2.10;1.70;;;;;;;;;;4957627;28;20204;-79
2022/06/28 01:34:28;;;;;;;1.63;1.40;;;;;;;;;;4971817;28;20209;-79
2022/06/28 01:36:55;;;;;;;3.73;1.60;;;;;;;;;;4966730;28;20611;-79
2022/06/28 01:39:24;;;;;;;1.70;1.60;;;;;;;;;;4972723;28;20690;-79
2022/06/28 01:41:50;;;;;;;3.13;1.90;;;;;;;;;;4971525;28;20240;-79
2022/06/28 01:44:20;;;;;;;2.43;1.80;;;;;;;;;;4956423;28;20196;-79
2022/06/28 01:46:58;;;;;;;3.83;1.90;;;;;;;;;;4973586;28;20227;-79
2022/06/28 01:49:36;;;;;;;1.70;1.60;;;;;;;;;;4989045;28;20637;-78
2022/06/28 01:52:03;;;;;;;3.53;1.80;;;;;;;;;;4970858;28;20197;-81
2022/06/28 01:54:30;;;;;;;3.80;1.90;;;;;;;;;;4965746;28;20593;-81
2022/06/28 01:56:56;;;;;;;2.93;1.60;;;;;;;;;;4965952;28;20192;-81
2022/06/28 01:59:26;;;;;;;3.97;1.60;;;;;;;;;;4959946;28;20189;-81
2022/06/28 02:01:59;;;;;;;2.17;1.77;;;;;;;;;;4975925;28;20557;-78
2022/06/28 02:04:30;;;;;;;2.80;1.90;;;;;;;;;;4973191;28;20216;-78
2022/06/28 02:07:00;;;;;;;1.93;1.60;;;;;;;;;;4977299;28;20195;-78
2022/06/28 02:09:32;;;;;;;3.80;1.70;;;;;;;;;;4981421;28;20188;-79
2022/06/28 02:11:58;;;;;;;3.63;1.83;;;;;;;;;;4960786;28;20233;-79
2022/06/28 02:14:29;;;;;;;3.00;1.90;;;;;;;;;;4973727;28;20668;-79
2022/06/28 02:16:58;;;;;;;2.23;1.90;;;;;;;;;;4968803;28;20255;-79
2022/06/28 02:19:25;;;;;;;1.80;1.70;;;;;;;;;;4979629;28;20276;-79
2022/06/28 02:21:52;;;;;;;1.90;1.80;;;;;;;;;;4973676;28;20290;-79
2022/06/28 02:24:20;;;;;;;5.80;2.00;;;;;;;;;;4965986;28;20192;-79
2022/06/28 02:26:46;;;;;;;5.73;2.40;;;;;;;;;;4958202;28;20694;-79
2022/06/28 02:29:12;;;;;;;2.53;1.90;;;;;;;;;;4973074;28;20208;-79
2022/06/28 02:31:39;;;;;;;4.17;2.20;;;;;;;;;;4982468;28;20684;-79
2022/06/28 02:34:05;;;;;;;2.67;1.93;;;;;;;;;;4957490;28;20402;-79
2022/06/28 02:41:44;;;;;;;2.60;1.90;;;;;;;;;;4977663;28;20208;-79
2022/06/28 02:44:10;;;;;;;3.73;2.00;;;;;;;;;;4959934;28;20197;-79
2022/06/28 02:46:36;;;;;;;2.77;1.93;;;;;;;;;;4973932;28;20727;-79
2022/06/28 02:49:03;;;;;;;2.20;1.80;;;;;;;;;;4965014;28;20288;-79
2022/06/28 02:51:29;;;;;;;3.77;1.90;;;;;;;;;;4956823;28;20222;-79
2022/06/28 02:53:56;;;;;;;3.27;1.80;;;;;;;;;;4956460;28;20208;-79
2022/06/28 02:56:22;;;;;;;2.10;1.90;;;;;;;;;;4976292;28;20188;-79
2022/06/28 02:58:48;;;;;;;5.67;1.97;;;;;;;;;;4940108;28;20711;-79
2022/06/28 03:01:15;;;;;;;2.40;1.73;;;;;;;;;;4972784;28;20218;-79
2022/06/28 03:03:41;;;;;;;2.60;1.70;;;;;;;;;;4972276;28;20180;-79
2022/06/28 03:06:09;;;;;;;2.00;1.80;;;;;;;;;;4982178;28;20195;-79
2022/06/28 03:08:35;;;;;;;1.70;1.60;;;;;;;;;;4940216;28;20204;-79
2022/06/28 03:11:03;;;;;;;3.23;1.87;;;;;;;;;;4966773;28;20284;-79
2022/06/28 03:13:29;;;;;;;2.17;1.70;;;;;;;;;;4956341;28;20212;-79
2022/06/28 03:15:55;;;;;;;3.30;1.80;;;;;;;;;;4955900;28;20194;-79
2022/06/28 03:18:22;;;;;;;4.43;1.77;;;;;;;;;;4940978;28;20219;-79
2022/06/28 03:20:48;;;;;;;4.90;2.07;;;;;;;;;;4972302;28;20211;-79
2022/06/28 03:23:15;;;;;;;3.63;2.10;;;;;;;;;;4956732;28;20656;-79
2022/06/28 03:25:44;;;;;;;4.13;2.20;;;;;;;;;;4946929;28;20602;-79
2022/06/28 03:28:11;;;;;;;2.53;1.90;;;;;;;;;;4954985;28;20192;-79
2022/06/28 03:30:37;;;;;;;3.80;1.97;;;;;;;;;;4972194;28;20200;-79
2022/06/28 03:33:03;;;;;;;2.13;1.90;;;;;;;;;;4960685;28;20201;-79
2022/06/28 03:35:34;;;;;;;2.10;1.90;;;;;;;;;;4969601;28;20188;-79
2022/06/28 03:38:00;;;;;;;2.73;1.70;;;;;;;;;;4955475;28;20247;-79
2022/06/28 03:40:49;;;;;;;1.90;1.73;;;;;;;;;;4966079;28;20228;-79
2022/06/28 03:43:16;;;;;;;1.93;1.83;;;;;;;;;;4957790;28;20229;-79
2022/06/28 03:45:42;;;;;;;2.50;2.00;;;;;;;;;;4946142;28;20191;-79
2022/06/28 03:48:32;;;;;;;3.27;2.33;;;;;;;;;;4951920;28;20654;-80
2022/06/28 03:51:23;;;;;;;2.80;1.83;;;;;;;;;;4955857;28;20328;-79
2022/06/28 03:54:16;;;;;;;3.27;2.40;;;;;;;;;;4964299;28;20256;-79
2022/06/28 03:56:48;;;;;;;2.47;1.97;;;;;;;;;;4970746;28;20515;-79
2022/06/28 03:59:16;;;;;;;7.43;2.50;;;;;;;;;;4935753;28;20191;-79
2022/06/28 04:01:42;;;;;;;6.13;3.03;;;;;;;;;;4965348;28;20209;-79
2022/06/28 04:04:08;;;;;;;3.77;3.10;;;;;;;;;;4940299;28;20199;-79
2022/06/28 04:06:38;;;;;;;8.03;3.67;;;;;;;;;;4970590;28;20696;-79
2022/06/28 04:09:04;;;;;;;3.47;2.67;;;;;;;;;;4960824;28;20193;-79
2022/06/28 04:11:31;;;;;;;2.90;2.30;;;;;;;;;;4962676;28;20284;-79
2022/06/28 04:13:57;;;;;;;2.70;2.50;;;;;;;;;;4955411;28;20204;-79
2022/06/28 04:16:23;;;;;;;3.43;2.50;;;;;;;;;;4966306;28;20181;-79
2022/06/28 04:18:52;;;;;;;2.57;2.20;;;;;;;;;;4938944;28;20529;-79
2022/06/28 04:21:25;;;;;;;4.87;2.57;;;;;;;;;;4960396;28;20255;-79
2022/06/28 04:24:03;;;;;;;2.60;2.30;;;;;;;;;;4962599;28;20180;-79
2022/06/28 04:26:29;;;;;;;5.17;2.60;;;;;;;;;;4953570;28;20189;-79
2022/06/28 04:28:56;;;;;;;3.20;2.20;;;;;;;;;;4956301;28;20255;-79
2022/06/28 04:31:25;;;;;;;2.40;2.20;;;;;;;;;;4953212;28;20200;-79
2022/06/28 04:33:52;;;;;;;4.63;2.40;;;;;;;;;;4939728;28;20212;-79
2022/06/28 04:36:23;;;;;;;3.57;2.47;;;;;;;;;;4954329;28;20184;-80
2022/06/28 04:38:49;;;;;;;3.17;2.57;;;;;;;;;;4957192;28;20682;-79
2022/06/28 04:41:25;;;;;;;5.87;2.60;;;;;;;;;;4955985;28;20231;-79
2022/06/28 04:44:06;;;;;;;3.67;2.60;;;;;;;;;;4951212;28;20200;-79
2022/06/28 04:46:35;;;;;;;2.70;2.50;;;;;;;;;;4977459;28;20192;-79
2022/06/28 04:49:05;;;;;;;3.63;2.63;;;;;;;;;;4939726;28;20220;-79
2022/06/28 04:51:42;;;;;;;2.90;2.60;;;;;;;;;;4971347;28;20849;-79
2022/06/28 04:54:11;;;;;;;3.27;2.77;;;;;;;;;;4951831;28;20696;-79
2022/06/28 04:56:57;;;;;;;3.97;2.40;;;;;;;;;;4972337;28;20259;-79
2022/06/28 04:59:24;;;;;;;5.53;2.60;;;;;;;;;;4977183;28;20180;-80
2022/06/28 05:01:51;;;;;;;3.13;2.63;;;;;;;;;;4968077;28;20302;-80
2022/06/28 05:04:18;;;;;;;4.93;2.57;;;;;;;;;;4964196;28;20211;-79
2022/06/28 05:07:02;;;;;;;3.07;2.40;;;;;;;;;;4953705;28;20192;-79
2022/06/28 05:09:29;;;;;;;4.90;2.67;;;;;;;;;;4933639;28;20219;-79
2022/06/28 05:11:55;;;;;;;3.97;2.60;;;;;;;;;;4970987;28;20665;-80
2022/06/28 05:14:31;;;;;;;4.63;2.57;;;;;;;;;;4978020;28;20210;-79
2022/06/28 05:16:59;;;;;;;3.00;2.70;;;;;;;;;;4975259;28;20200;-80
2022/06/28 05:19:26;;;;;;;3.57;2.67;;;;;;;;;;4966099;28;20288;-79
2022/06/28 05:21:52;;;;;;;8.60;3.07;;;;;;;;;;4939886;28;20226;-76
2022/06/28 05:24:18;;;;;;;4.43;2.70;;;;;;;;;;4977882;28;20560;-77
2022/06/28 05:26:51;;;;;;;3.13;2.50;;;;;;;;;;4960784;28;20323;-76
2022/06/28 05:29:20;;;;;;;6.50;5.80;;;;;;;;;;4972358;28;20230;-73
2022/06/28 05:31:46;;;;;;;7.37;3.87;;;;;;;;;;4958012;28;20266;-76
2022/06/28 05:34:13;;;;;;;4.53;2.70;;;;;;;;;;4973958;28;20204;-76
2022/06/28 05:36:40;;;;;;;3.57;2.67;;;;;;;;;;4957497;28;20192;-73
2022/06/28 05:39:08;;;;;;;4.47;2.80;;;;;;;;;;4954814;28;20187;-74
2022/06/28 05:41:34;;;;;;;4.10;2.70;;;;;;;;;;4974337;28;20227;-75
2022/06/28 05:44:01;;;;;;;3.93;3.00;;;;;;;;;;4974103;28;20195;-77
2022/06/28 05:46:28;;;;;;;3.13;2.80;;;;;;;;;;4956281;28;20192;-77
2022/06/28 05:48:55;;;;;;;4.53;3.10;;;;;;;;;;4950871;28;20840;-75
2022/06/28 05:51:21;;;;;;;4.83;3.17;;;;;;;;;;4961708;28;20622;-76
2022/06/28 05:53:47;;;;;;;6.07;3.53;;;;;;;;;;4973515;28;20253;-77
2022/06/28 05:56:15;;;;;;;4.40;3.23;;;;;;;;;;4971432;28;20188;-77
2022/06/28 05:58:41;;;;;;;4.10;3.40;;;;;;;;;;4962143;28;20177;-78
2022/06/28 06:01:07;;;;;;;6.73;2.90;;;;;;;;;;4972769;28;20251;-77
2022/06/28 06:03:34;;;;;;;5.77;3.00;;;;;;;;;;4962962;28;20313;-77
2022/06/28 06:06:00;;;;;;;5.53;3.10;;;;;;;;;;4972522;28;20195;-76
2022/06/28 06:08:27;;;;;;;3.20;2.90;;;;;;;;;;4957349;28;20185;-75
2022/06/28 06:10:53;;;;;;;5.57;3.10;;;;;;;;;;4973090;28;20214;-77
2022/06/28 06:13:19;;;;;;;3.57;2.93;;;;;;;;;;4955901;28;20232;-78
2022/06/28 06:15:46;;;;;;;4.93;3.50;;;;;;;;;;4957847;28;20184;-76
2022/06/28 06:18:13;;;;;;;6.17;3.37;;;;;;;;;;4976658;28;20204;-75
2022/06/28 06:20:39;;;;;;;5.37;3.20;;;;;;;;;;4960795;28;20208;-74
2022/06/28 06:23:05;;;;;;;5.43;3.20;;;;;;;;;;4954888;28;20189;-76
2022/06/28 06:26:01;;;;;;;3.77;3.47;;;;;;;;;;4892134;28;20200;-77
2022/06/28 06:28:28;;;;;;;5.70;3.40;;;;;;;;;;4956444;28;20196;-77
2022/06/28 06:30:57;;;;;;;3.53;3.23;;;;;;;;;;4978351;28;20206;-75
2022/06/28 06:33:48;;;;;;;3.70;3.17;;;;;;;;;;4964507;28;20253;-78
2022/06/28 06:36:26;;;;;;;3.90;3.07;;;;;;;;;;4964150;28;20185;-78
2022/06/28 06:38:54;;;;;;;5.13;3.10;;;;;;;;;;4956232;28;20177;-79
2022/06/28 06:41:21;;;;;;;9.00;3.07;;;;;;;;;;4939787;28;20204;-75
2022/06/28 06:43:52;;;;;;;3.67;3.13;;;;;;;;;;4975641;28;20537;-75
2022/06/28 06:46:20;;;;;;;3.90;2.80;;;;;;;;;;4976854;28;20196;-75
2022/06/28 06:48:46;;;;;;;4.60;2.63;;;;;;;;;;4957591;28;20221;-75
2022/06/28 06:51:12;;;;;;;6.17;3.10;;;;;;;;;;4957860;28;20208;-75
2022/06/28 06:53:38;;;;;;;3.30;3.00;;;;;;;;;;4958833;28;20201;-75
2022/06/28 06:56:05;;;;;;;4.93;3.40;;;;;;;;;;4959125;28;20660;-76
2022/06/28 06:58:31;;;;;;;5.80;3.70;;;;;;;;;;4955647;28;20181;-76
2022/06/28 07:00:58;;;;;;;7.93;3.77;;;;;;;;;;4973753;28;20295;-75
2022/06/28 07:03:24;;;;;;;4.90;3.43;;;;;;;;;;4956685;28;20188;-75
2022/06/28 07:05:51;;;;;;;3.67;2.90;;;;;;;;;;4965771;28;20189;-75
2022/06/28 07:08:17;;;;;;;3.37;2.83;;;;;;;;;;4970475;28;20603;-75
2022/06/28 07:10:58;;;;;;;3.33;3.00;;;;;;;;;;4973773;28;20215;-77
2022/06/28 07:13:24;;;;;;;3.70;2.20;;;;;;;;;;4957383;28;20752;-74
2022/06/28 07:15:51;;;;;;;3.70;2.40;;;;;;;;;;4957887;28;20263;-75
2022/06/28 07:18:22;;;;;;;3.20;2.23;;;;;;;;;;4953583;28;20192;-75
2022/06/28 07:20:51;;;;;;;3.80;2.30;;;;;;;;;;4973834;28;20197;-76
2022/06/28 07:23:17;;;;;;;3.67;1.80;;;;;;;;;;4972139;28;20187;-79
2022/06/28 07:25:44;;;;;;;2.40;1.90;;;;;;;;;;4971554;28;20193;-79
2022/06/28 07:28:10;;;;;;;2.57;1.80;;;;;;;;;;4971433;28;20271;-78
2022/06/28 07:30:37;;;;;;;3.67;1.67;;;;;;;;;;4964764;28;20208;-77
2022/06/28 07:33:04;;;;;;;1.87;1.60;;;;;;;;;;4954464;28;20181;-75
2022/06/28 07:35:31;;;;;;;4.30;1.77;;;;;;;;;;4970063;28;20184;-78
2022/06/28 07:37:58;;;;;;;2.77;1.60;;;;;;;;;;4969827;28;20620;-74
2022/06/28 07:40:50;;;;;;;1.87;1.43;;;;;;;;;;4933366;28;20212;-75
2022/06/28 07:43:36;;;;;;;1.57;1.30;;;;;;;;;;4974235;28;20208;-76
2022/06/28 07:46:06;;;;;;;1.67;1.30;;;;;;;;;;4965681;28;20189;-75
2022/06/28 07:48:33;;;;;;;1.40;1.30;;;;;;;;;;4956990;28;20247;-74
2022/06/28 07:53:50;;;;;;;2.77;1.70;;;;;;;;;;4937273;28;20216;-74
2022/06/28 07:56:23;;;;;;;2.93;1.90;;;;;;;;;;4969352;28;20212;-76
2022/06/28 07:58:50;;;;;;;2.30;1.80;;;;;;;;;;4952904;28;20748;-74
2022/06/28 08:01:22;;;;;;;2.00;1.80;;;;;;;;;;4963892;28;20216;-75
2022/06/28 08:03:49;;;;;;;1.93;1.60;;;;;;;;;;4973848;28;20657;-75
2022/06/28 08:06:16;;;;;;;2.97;1.88;;;;;;;;;;4952396;28;20481;-73
2022/06/28 08:08:48;;;;;;;3.97;1.97;;;;;;;;;;4969355;28;20196;-73
2022/06/28 08:11:15;;;;;;;3.13;1.80;;;;;;;;;;4970909;28;20342;-72
2022/06/28 08:13:42;;;;;;;1.83;1.70;;;;;;;;;;4950969;28;20204;-73
2022/06/28 08:16:09;;;;;;;3.97;1.77;;;;;;;;;;4957289;28;20216;-73
2022/06/28 08:18:35;;;;;;;2.60;1.80;;;;;;;;;;4953687;28;20629;-73
2022/06/28 08:21:01;;;;;;;2.90;1.70;;;;;;;;;;4942790;28;20532;-73
2022/06/28 08:23:28;;;;;;;2.80;1.97;;;;;;;;;;4967127;28;20604;-74
2022/06/28 08:25:54;;;;;;;2.47;1.70;;;;;;;;;;4938182;28;20180;-74
2022/06/28 08:28:20;;;;;;;3.90;1.80;;;;;;;;;;4951262;28;20211;-76
2022/06/28 08:30:47;;;;;;;4.70;1.90;;;;;;;;;;4969425;28;20290;-73
2022/06/28 08:33:13;;;;;;;1.90;1.70;;;;;;;;;;4968500;28;20214;-75
2022/06/28 08:35:39;;;;;;;3.37;1.77;;;;;;;;;;4968203;28;20180;-72
2022/06/28 08:38:06;;;;;;;2.70;1.73;;;;;;;;;;4951760;28;20176;-73
2022/06/28 08:40:33;;;;;;;2.63;1.90;;;;;;;;;;4973379;28;20259;-73
2022/06/28 08:43:00;;;;;;;3.03;2.03;;;;;;;;;;4968753;28;20201;-77
2022/06/28 08:45:26;;;;;;;1.70;1.60;;;;;;;;;;4968499;28;20656;-72
2022/06/28 08:47:53;;;;;;;2.50;1.53;;;;;;;;;;4968347;28;20208;-72
2022/06/28 08:50:32;;;;;;;2.33;1.50;;;;;;;;;;4947536;28;20205;-72
2022/06/28 08:53:03;;;;;;;2.17;1.20;;;;;;;;;;4952494;28;20223;-73
2022/06/28 08:55:30;;;;;;;1.77;1.10;;;;;;;;;;4974109;28;20184;-75
2022/06/28 08:57:57;;;;;;;2.90;1.20;;;;;;;;;;4974780;28;20184;-73
2022/06/28 09:00:23;;;;;;;2.17;1.00;;;;;;;;;;4971371;28;20208;-72
2022/06/28 09:02:50;;;;;;;2.87;0.90;;;;;;;;;;4974410;28;20184;-74
2022/06/28 09:05:16;;;;;;;2.13;0.90;;;;;;;;;;4974088;28;20661;-73
2022/06/28 09:07:44;;;;;;;1.60;0.83;;;;;;;;;;4971311;28;20219;-73
2022/06/28 09:10:10;;;;;;;1.67;1.00;;;;;;;;;;4970526;28;20204;-73
2022/06/28 09:12:36;;;;;;;0.80;0.80;;;;;;;;;;4969494;28;20648;-73
2022/06/28 09:15:04;;;;;;;1.47;0.90;;;;;;;;;;4970725;28;20208;-72
2022/06/28 09:17:31;;;;;;;1.00;0.90;;;;;;;;;;4982115;28;20188;-73
2022/06/28 09:20:03;;;;;;;1.40;0.80;;;;;;;;;;4975162;28;20187;-76
2022/06/28 09:22:42;;;;;;;1.37;0.90;;;;;;;;;;4971769;28;20211;-75
2022/06/28 09:25:11;;;;;;;1.57;0.90;;;;;;;;;;4970258;28;20211;-74
2022/06/28 09:27:39;;;;;;;1.97;0.90;;;;;;;;;;4973326;28;20212;-74
2022/06/28 09:30:06;;;;;;;1.80;0.90;;;;;;;;;;4973005;28;20227;-76
2022/06/28 09:32:33;;;;;;;1.17;0.90;;;;;;;;;;4975452;28;20693;-76
2022/06/28 09:35:01;;;;;;;1.50;0.90;;;;;;;;;;4972751;28;20247;-76
2022/06/28 09:37:40;;;;;;;1.53;1.03;;;;;;;;;;4969452;28;20673;-73
2022/06/28 09:40:19;;;;;;;2.40;1.20;;;;;;;;;;4971455;28;20212;-72
2022/06/28 09:42:47;;;;;;;3.40;1.10;;;;;;;;;;4977412;28;20180;-71
2022/06/28 09:45:15;;;;;;;1.67;1.20;;;;;;;;;;4973235;28;20268;-74
2022/06/28 09:47:42;;;;;;;1.63;1.10;;;;;;;;;;4970260;28;20531;-71
2022/06/28 09:50:09;;;;;;;1.80;0.90;;;;;;;;;;4972083;28;20207;-73
2022/06/28 09:52:36;;;;;;;1.40;1.00;;;;;;;;;;4972571;28;20579;-73
2022/06/28 09:55:03;;;;;;;1.93;1.10;;;;;;;;;;4972955;28;20213;-71
2022/06/28 09:57:30;;;;;;;2.50;1.00;;;;;;;;;;4971242;28;20680;-75
2022/06/28 09:59:57;;;;;;;2.63;1.10;;;;;;;;;;4970618;28;21070;-73
2022/06/28 10:02:23;;;;;;;1.10;1.00;;;;;;;;;;4969692;28;20185;-71
2022/06/28 10:04:50;;;;;;;2.40;1.10;;;;;;;;;;4972098;28;20227;-75
2022/06/28 10:07:16;;;;;;;1.70;1.10;;;;;;;;;;4963994;28;20209;-76
2022/06/28 10:09:43;;;;;;;2.23;1.20;;;;;;;;;;4960185;28;20180;-74
2022/06/28 10:15:04;;;;;;;1.30;1.20;;;;;;;;;;4966044;28;20236;-75
2022/06/28 10:17:33;;;;;;;2.77;1.10;;;;;;;;;;4970089;28;20215;-75
2022/06/28 10:20:00;;;;;;;2.57;1.17;;;;;;;;;;4971147;28;20201;-75
2022/06/28 10:22:26;;;;;;;1.20;1.10;;;;;;;;;;4962802;28;20194;-74
2022/06/28 10:24:57;;;;;;;3.80;1.10;;;;;;;;;;4967508;28;20191;-74
2022/06/28 10:27:24;;;;;;;1.27;1.10;;;;;;;;;;4968234;28;20216;-72
2022/06/28 10:30:00;;;;;;;1.33;1.10;;;;;;;;;;4972236;28;20709;-72
2022/06/28 10:32:38;;;;;;;2.97;1.20;;;;;;;;;;4967813;28;20208;-74
2022/06/28 10:35:05;;;;;;;2.10;1.30;;;;;;;;;;4964316;28;20230;-75
2022/06/28 10:37:31;;;;;;;3.33;1.20;;;;;;;;;;4964280;28;20193;-73
2022/06/28 10:40:16;;;;;;;2.20;1.20;;;;;;;;;;4967589;28;20185;-74
2022/06/28 10:42:52;;;;;;;2.03;1.20;;;;;;;;;;4970218;28;20189;-75
2022/06/28 10:45:21;;;;;;;2.70;1.20;;;;;;;;;;4966109;28;20204;-75
2022/06/28 10:48:06;;;;;;;1.83;1.10;;;;;;;;;;4967185;28;20653;-75
2022/06/28 10:50:52;;;;;;;1.40;1.10;;;;;;;;;;4966558;28;20226;-73
2022/06/28 10:53:19;;;;;;;1.90;1.10;;;;;;;;;;4971534;28;20295;-74
2022/06/28 10:56:05;;;;;;;2.27;1.20;;;;;;;;;;4969430;28;20184;-75
2022/06/28 10:58:31;;;;;;;3.50;1.40;;;;;;;;;;4970070;28;20641;-74
2022/06/28 11:00:57;;;;;;;2.10;1.20;;;;;;;;;;4969714;28;20676;-74
2022/06/28 11:03:23;;;;;;;1.80;1.10;;;;;;;;;;4969689;28;20782;-77
2022/06/28 11:05:54;;;;;;;1.83;1.30;;;;;;;;;;4968117;28;20858;-74
2022/06/28 11:08:33;;;;;;;3.37;1.60;;;;;;;;;;4966537;28;20212;-75
2022/06/28 11:11:03;;;;;;;2.00;1.30;;;;;;;;;;4967633;28;20334;-76
2022/06/28 11:13:30;;;;;;;3.00;1.30;;;;;;;;;;4969946;28;20504;-75
2022/06/28 11:15:56;;;;;;;4.37;3.23;;;;;;;;;;4972228;28;20179;-74
2022/06/28 11:18:26;;;;;;;1.90;1.23;;;;;;;;;;4970857;28;20183;-72
2022/06/28 11:20:53;;;;;;;1.97;1.23;;;;;;;;;;4971067;28;20216;-73
2022/06/28 11:23:24;;;;;;;1.63;1.13;;;;;;;;;;4955861;28;20242;-78
2022/06/28 11:28:53;;;;;;;1.60;1.20;;;;;;;;;;4964974;28;20204;-74
2022/06/28 11:31:19;;;;;;;2.77;1.37;;;;;;;;;;4967498;28;20593;-75
2022/06/28 11:33:47;;;;;;;2.43;1.23;;;;;;;;;;4957637;28;20248;-74
2022/06/28 11:36:31;;;;;;;1.80;1.20;;;;;;;;;;4964784;28;20952;-74
2022/06/28 11:39:04;;;;;;;2.53;1.20;;;;;;;;;;4970478;28;20679;-74
2022/06/28 11:41:31;;;;;;;2.10;1.30;;;;;;;;;;4959227;28;20204;-74
2022/06/28 11:43:59;;;;;;;2.47;1.10;;;;;;;;;;4969289;28;21308;-75
2022/06/28 11:46:26;;;;;;;1.60;1.27;;;;;;;;;;4964955;28;20227;-74
2022/06/28 11:48:52;;;;;;;1.53;1.03;;;;;;;;;;4954167;28;20649;-74
2022/06/28 11:51:27;;;;;;;2.77;1.17;;;;;;;;;;4968982;28;20742;-74
2022/06/28 11:53:53;;;;;;;2.30;1.00;;;;;;;;;;4968313;28;20231;-74
2022/06/28 11:56:20;;;;;;;1.63;1.10;;;;;;;;;;4969889;28;20192;-74
2022/06/28 11:58:46;;;;;;;1.80;1.00;;;;;;;;;;4952122;28;22416;-74
2022/06/28 12:01:13;;;;;;;1.37;1.10;;;;;;;;;;4969725;28;20259;-74
2022/06/28 12:03:43;;;;;;;1.67;1.20;;;;;;;;;;4967571;28;20201;-74
2022/06/28 12:06:23;;;;;;;2.40;1.43;;;;;;;;;;4971016;28;20589;-74
2022/06/28 12:08:51;;;;;;;2.00;1.10;;;;;;;;;;4969808;28;21705;-74
2022/06/28 12:11:29;;;;;;;1.40;1.20;;;;;;;;;;4955107;28;20219;-75
2022/06/28 12:13:56;;;;;;;1.57;1.17;;;;;;;;;;4965130;28;20216;-74
2022/06/28 12:16:23;;;;;;;2.33;1.30;;;;;;;;;;4970456;28;20185;-74
2022/06/28 12:18:56;;;;;;;1.43;1.33;;;;;;;;;;4970113;28;20212;-74
2022/06/28 12:21:22;;;;;;;1.43;1.20;;;;;;;;;;4964931;28;20205;-74
2022/06/28 12:23:50;;;;;;;1.50;1.10;;;;;;;;;;4964170;28;20225;-74
2022/06/28 12:26:16;;;;;;;1.43;1.10;;;;;;;;;;4965516;28;20199;-74
2022/06/28 12:28:42;;;;;;;1.50;1.20;;;;;;;;;;4948697;28;20211;-74
2022/06/28 12:31:09;;;;;;;1.77;1.10;;;;;;;;;;4968084;28;20238;-74
2022/06/28 12:33:35;;;;;;;2.07;1.17;;;;;;;;;;4966610;28;20215;-74
2022/06/28 12:36:01;;;;;;;3.00;1.20;;;;;;;;;;4962921;28;20232;-73
2022/06/28 12:38:27;;;;;;;1.87;1.20;;;;;;;;;;4961763;28;20772;-74
2022/06/28 12:40:54;;;;;;;1.70;1.17;;;;;;;;;;4966175;28;20270;-75
2022/06/28 12:43:20;;;;;;;1.47;1.03;;;;;;;;;;4937100;28;20967;-75
2022/06/28 12:45:47;;;;;;;2.20;1.10;;;;;;;;;;4952459;28;20192;-74
2022/06/28 12:48:13;;;;;;;1.93;1.20;;;;;;;;;;4970064;28;20653;-75
2022/06/28 12:50:39;;;;;;;1.70;1.23;;;;;;;;;;4965927;28;20207;-75
2022/06/28 12:53:06;;;;;;;2.27;1.20;;;;;;;;;;4955310;28;20203;-75
2022/06/28 12:55:33;;;;;;;1.30;1.20;;;;;;;;;;4966833;28;20194;-75
2022/06/28 12:57:59;;;;;;;0.90;0.90;;;;;;;;;;4937514;28;20189;-75
2022/06/28 13:00:25;;;;;;;1.50;1.10;;;;;;;;;;4958114;28;20212;-75
2022/06/28 13:02:51;;;;;;;1.53;1.20;;;;;;;;;;4970404;28;20181;-75
2022/06/28 13:05:19;;;;;;;2.70;1.40;;;;;;;;;;4969673;28;20230;-75
2022/06/28 13:07:46;;;;;;;1.37;1.27;;;;;;;;;;4957900;28;20205;-75
2022/06/28 13:10:13;;;;;;;2.43;1.20;;;;;;;;;;4953910;28;20624;-75
2022/06/28 13:12:39;;;;;;;1.43;1.20;;;;;;;;;;4965573;28;20187;-75
2022/06/28 13:15:06;;;;;;;2.63;1.10;;;;;;;;;;4972130;28;20212;-76
2022/06/28 13:17:32;;;;;;;2.07;1.20;;;;;;;;;;4956221;28;20245;-75
2022/06/28 13:20:00;;;;;;;2.00;1.27;;;;;;;;;;4953693;28;20193;-75
2022/06/28 13:22:26;;;;;;;1.67;1.20;;;;;;;;;;4968926;28;20189;-75
2022/06/28 13:24:52;;;;;;;2.10;1.13;;;;;;;;;;4967379;28;20513;-75
2022/06/28 13:27:18;;;;;;;1.50;1.17;;;;;;;;;;4949210;28;20195;-75
2022/06/28 13:29:45;;;;;;;1.53;1.20;;;;;;;;;;4969898;28;20337;-75
2022/06/28 13:32:11;;;;;;;1.80;1.20;;;;;;;;;;4942412;28;20202;-76
2022/06/28 13:34:37;;;;;;;2.43;1.30;;;;;;;;;;4969563;28;20297;-76
2022/06/28 13:37:04;;;;;;;3.17;1.10;;;;;;;;;;4971070;28;20214;-76
2022/06/28 13:39:30;;;;;;;2.33;1.10;;;;;;;;;;4969589;28;20240;-76
2022/06/28 13:41:57;;;;;;;1.20;1.00;;;;;;;;;;4974059;28;20215;-76
2022/06/28 13:44:23;;;;;;;1.98;1.20;;;;;;;;;;4971661;28;20188;-76
2022/06/28 13:46:49;;;;;;;3.70;1.40;;;;;;;;;;4974423;28;20183;-76
2022/06/28 13:49:16;;;;;;;2.28;1.13;;;;;;;;;;4955637;28;20197;-76
2022/06/28 13:51:42;;;;;;;1.77;1.00;;;;;;;;;;4955707;28;20224;-75
2022/06/28 13:54:09;;;;;;;1.88;1.00;;;;;;;;;;4979573;28;20742;-75
2022/06/28 13:56:35;;;;;;;1.20;0.98;;;;;;;;;;4958018;28;20582;-75
2022/06/28 13:59:01;;;;;;;2.17;1.10;;;;;;;;;;4979451;28;20679;-75
2022/06/28 14:01:28;;;;;;;1.00;1.00;;;;;;;;;;4973160;28;20266;-75
2022/06/28 14:03:54;;;;;;;3.20;1.20;;;;;;;;;;4963979;28;20783;-76
2022/06/28 14:06:20;;;;;;;1.15;0.93;;;;;;;;;;4971005;28;20265;-76
2022/06/28 14:08:47;;;;;;;1.02;0.90;;;;;;;;;;4937587;28;20188;-75
2022/06/28 14:11:13;;;;;;;1.83;1.13;;;;;;;;;;4974360;28;20232;-79
2022/06/28 14:13:41;;;;;;;2.33;1.15;;;;;;;;;;4973844;28;20281;-79
2022/06/28 14:16:07;;;;;;;1.45;1.00;;;;;;;;;;4966259;28;20212;-76
2022/06/28 14:18:34;;;;;;;3.10;1.08;;;;;;;;;;4972062;28;20212;-77
2022/06/28 14:21:02;;;;;;;1.10;0.90;;;;;;;;;;4973085;28;20205;-80
2022/06/28 14:23:28;;;;;;;1.05;0.95;;;;;;;;;;4973063;28;20196;-79
2022/06/28 14:25:54;;;;;;;1.23;0.90;;;;;;;;;;4968914;28;20188;-79
2022/06/28 14:28:21;;;;;;;1.30;1.00;;;;;;;;;;4956360;28;20560;-78
2022/06/28 14:30:47;;;;;;;1.60;0.90;;;;;;;;;;4970160;28;20297;-79
2022/06/28 14:33:13;;;;;;;1.58;1.10;;;;;;;;;;4967182;28;20668;-79
2022/06/28 14:35:40;;;;;;;1.23;1.10;;;;;;;;;;4968771;28;20582;-78
2022/06/28 14:38:06;;;;;;;0.90;0.90;;;;;;;;;;4979500;28;20208;-79
2022/06/28 14:40:33;;;;;;;1.10;1.00;;;;;;;;;;4969243;28;20236;-79
2022/06/28 14:43:00;;;;;;;2.05;1.70;;;;;;;;;;4956607;28;20547;-78
2022/06/28 14:45:27;;;;;;;3.25;1.08;;;;;;;;;;4970949;28;20672;-78
2022/06/28 14:47:54;;;;;;;1.10;1.00;;;;;;;;;;4970518;28;20202;-78
2022/06/28 14:50:20;;;;;;;1.67;1.20;;;;;;;;;;4971790;28;20680;-78
2022/06/28 14:52:47;;;;;;;1.77;1.10;;;;;;;;;;4972893;28;20199;-78
2022/06/28 14:55:13;;;;;;;1.30;1.20;;;;;;;;;;4976673;28;20215;-81
2022/06/28 14:57:39;;;;;;;1.60;1.10;;;;;;;;;;4971999;28;20220;-80
2022/06/28 15:00:09;;;;;;;2.03;1.00;;;;;;;;;;4979265;28;22554;-80
2022/06/28 15:02:37;;;;;;;1.70;1.00;;;;;;;;;;4960138;28;20220;-79
2022/06/28 15:05:04;;;;;;;2.10;0.90;;;;;;;;;;4970890;28;20266;-79
2022/06/28 15:07:31;;;;;;;1.30;1.00;;;;;;;;;;4964628;28;20217;-78